Time;durP1;ratioP1;P1;durP2;ratioP2;P2;SDS_P1;SDS_P2;PMS_P1;PMS_P2;Temp;Humidity;BMP_temperature;BMP_pressure;BME280_temperature;BME280_humidity;BME280_pressure;Samples;Min_cycle;Max_cycle;Signal;HPM_P1;HPM_P2
2023/08/27 00:01:33;;;;;;;8.75;7.85;;;;;;;;;;6246124;23;20016;-44
2023/08/27 00:03:59;;;;;;;8.93;8.07;;;;;;;;;;6245672;23;20018;-43
2023/08/27 00:06:25;;;;;;;8.07;7.40;;;;;;;;;;6245852;23;20012;-42
2023/08/27 00:08:51;;;;;;;8.52;7.72;;;;;;;;;;6245991;23;20016;-44
2023/08/27 00:11:18;;;;;;;8.80;7.90;;;;;;;;;;6245870;23;20028;-43
2023/08/27 00:13:44;;;;;;;9.40;8.40;;;;;;;;;;6245665;23;20087;-42
2023/08/27 00:16:10;;;;;;;10.07;8.35;;;;;;;;;;6245532;23;20453;-43
2023/08/27 00:18:36;;;;;;;9.23;8.43;;;;;;;;;;6245793;23;20134;-43
2023/08/27 00:21:03;;;;;;;9.02;8.15;;;;;;;;;;6218909;23;20055;-43
2023/08/27 00:23:29;;;;;;;10.27;9.20;;;;;;;;;;6245905;23;20013;-43
2023/08/27 00:25:55;;;;;;;9.05;8.20;;;;;;;;;;6245793;23;20047;-42
2023/08/27 00:28:21;;;;;;;10.15;9.25;;;;;;;;;;6245831;23;20019;-42
2023/08/27 00:30:47;;;;;;;9.88;8.95;;;;;;;;;;6246708;23;20062;-46
2023/08/27 00:33:13;;;;;;;10.25;9.25;;;;;;;;;;6247546;23;20012;-43
2023/08/27 00:35:42;;;;;;;10.40;9.32;;;;;;;;;;6195886;23;20016;-45
2023/08/27 00:38:08;;;;;;;8.98;8.15;;;;;;;;;;6247700;23;20016;-43
2023/08/27 00:40:34;;;;;;;9.98;8.98;;;;;;;;;;6247695;23;20020;-43
2023/08/27 00:43:02;;;;;;;10.13;9.30;;;;;;;;;;6247545;23;20360;-44
2023/08/27 00:45:28;;;;;;;10.70;8.55;;;;;;;;;;6247763;23;20020;-44
2023/08/27 00:47:54;;;;;;;9.18;8.38;;;;;;;;;;6247623;23;20016;-42
2023/08/27 00:50:20;;;;;;;10.65;8.65;;;;;;;;;;6247577;23;20043;-44
2023/08/27 00:52:46;;;;;;;10.10;8.65;;;;;;;;;;6247445;23;20012;-42
2023/08/27 00:55:12;;;;;;;11.25;8.48;;;;;;;;;;6247760;23;20073;-43
2023/08/27 00:57:40;;;;;;;9.77;8.88;;;;;;;;;;6195072;23;20016;-43
2023/08/27 01:00:09;;;;;;;8.98;8.02;;;;;;;;;;6247629;23;20105;-44
2023/08/27 01:02:35;;;;;;;10.07;9.02;;;;;;;;;;6220204;23;20016;-42
2023/08/27 01:05:02;;;;;;;9.98;9.00;;;;;;;;;;6246981;23;20012;-44
2023/08/27 01:07:45;;;;;;;9.60;8.75;;;;;;;;;;6247362;23;20020;-43
2023/08/27 01:10:16;;;;;;;9.57;8.68;;;;;;;;;;6247106;23;20448;-43
2023/08/27 01:12:57;;;;;;;8.93;8.02;;;;;;;;;;6247381;23;20016;-44
2023/08/27 01:15:23;;;;;;;9.50;8.73;;;;;;;;;;6246763;23;20053;-47
2023/08/27 01:17:51;;;;;;;8.00;7.20;;;;;;;;;;6247423;23;20016;-42
2023/08/27 01:20:17;;;;;;;8.32;7.38;;;;;;;;;;6247365;23;20321;-44
2023/08/27 01:22:43;;;;;;;8.32;7.53;;;;;;;;;;6247026;23;20396;-43
2023/08/27 01:25:09;;;;;;;8.10;7.40;;;;;;;;;;6195156;23;20020;-43
2023/08/27 01:27:40;;;;;;;7.50;6.80;;;;;;;;;;6247125;23;20016;-44
2023/08/27 01:30:21;;;;;;;8.43;7.63;;;;;;;;;;6247317;23;20062;-42
2023/08/27 01:33:05;;;;;;;8.10;7.30;;;;;;;;;;6247002;23;20091;-47
2023/08/27 01:35:32;;;;;;;9.07;8.15;;;14.00;99.90;;;;;;6247225;23;20016;-45
2023/08/27 01:37:58;;;;;;;8.52;7.63;;;13.70;99.90;;;;;;6247177;23;20318;-42
2023/08/27 01:40:26;;;;;;;7.93;7.22;;;13.90;99.90;;;;;;6247193;23;20016;-43
2023/08/27 01:42:51;;;;;;;8.50;7.70;;;13.70;99.90;;;;;;6246431;23;20452;-44
2023/08/27 01:45:17;;;;;;;9.23;8.40;;;13.80;99.90;;;;;;6246977;23;20019;-47
2023/08/27 01:47:43;;;;;;;8.57;7.78;;;14.20;99.90;;;;;;6247022;23;20012;-42
2023/08/27 01:50:09;;;;;;;7.95;7.25;;;13.80;99.90;;;;;;6247087;23;20384;-45
2023/08/27 01:52:35;;;;;;;8.15;7.25;;;13.70;99.90;;;;;;6219848;23;20382;-43
2023/08/27 01:55:03;;;;;;;8.20;7.40;;;13.70;99.90;;;;;;6246522;23;20073;-43
2023/08/27 01:57:28;;;;;;;7.55;6.85;;;13.70;99.90;;;;;;6246533;23;20519;-44
2023/08/27 01:59:54;;;;;;;7.82;7.13;;;13.70;99.90;;;;;;6246867;23;20047;-46
2023/08/27 02:02:20;;;;;;;7.78;7.07;;;13.70;99.90;;;;;;6246509;23;20344;-43
2023/08/27 02:04:46;;;;;;;6.72;6.20;;;13.80;99.90;;;;;;6246907;23;20016;-42
2023/08/27 02:07:11;;;;;;;7.63;6.93;;;13.50;99.90;;;;;;6246705;23;20083;-42
2023/08/27 02:09:37;;;;;;;6.75;6.05;;;13.50;99.90;;;;;;6246805;23;20020;-42
2023/08/27 02:12:04;;;;;;;7.63;6.93;;;13.40;99.90;;;;;;6219657;23;20020;-42
2023/08/27 02:14:29;;;;;;;8.40;7.63;;;13.40;99.90;;;;;;6246713;23;20058;-43
2023/08/27 02:16:55;;;;;;;7.95;6.55;;;13.40;99.90;;;;;;6246709;23;20020;-44
2023/08/27 02:19:21;;;;;;;7.10;6.60;;;13.30;99.90;;;;;;6219659;23;20024;-42
2023/08/27 02:21:47;;;;;;;8.25;7.50;;;;;;;;;;6246563;23;20012;-43
2023/08/27 02:24:13;;;;;;;7.57;7.05;;;;;;;;;;6246829;23;20039;-42
2023/08/27 02:26:41;;;;;;;7.25;6.55;;;13.60;99.90;;;;;;6246679;23;20069;-43
2023/08/27 02:29:07;;;;;;;6.95;6.35;;;13.30;99.90;;;;;;6219783;23;20016;-42
2023/08/27 02:31:33;;;;;;;7.25;6.65;;;13.20;99.90;;;;;;6246716;23;20066;-44
2023/08/27 02:33:59;;;;;;;7.40;6.68;;;13.30;99.90;;;;;;6246502;23;20496;-43
2023/08/27 02:36:25;;;;;;;7.75;7.05;;;13.30;99.90;;;;;;6246634;23;20012;-43
2023/08/27 02:38:50;;;;;;;7.90;7.10;;;13.20;99.90;;;;;;6246692;23;20063;-43
2023/08/27 02:41:16;;;;;;;8.27;7.47;;;13.20;99.90;;;;;;6246563;23;20087;-42
2023/08/27 02:43:41;;;;;;;7.45;6.75;;;13.20;99.90;;;;;;6194404;23;20086;-43
2023/08/27 02:46:07;;;;;;;7.35;6.65;;;13.40;99.90;;;;;;6219459;23;20452;-43
2023/08/27 02:48:33;;;;;;;7.45;6.75;;;13.40;99.90;;;;;;6246584;23;20035;-43
2023/08/27 02:50:58;;;;;;;6.93;6.30;;;13.40;99.90;;;;;;6219732;23;20450;-45
2023/08/27 02:53:24;;;;;;;8.98;6.40;;;13.30;99.90;;;;;;6246335;23;20317;-43
2023/08/27 02:55:49;;;;;;;6.78;6.28;;;13.30;99.90;;;;;;6246438;23;20019;-42
2023/08/27 02:58:15;;;;;;;6.80;5.80;;;13.30;99.90;;;;;;6246344;23;20008;-42
2023/08/27 03:00:41;;;;;;;6.80;6.10;;;13.30;99.90;;;;;;6219365;23;20475;-44
2023/08/27 03:03:08;;;;;;;6.57;5.97;;;13.30;99.90;;;;;;6219261;23;20016;-43
2023/08/27 03:05:33;;;;;;;6.07;5.35;;;13.20;99.90;;;;;;6246474;23;20027;-43
2023/08/27 03:07:59;;;;;;;5.72;5.22;;;13.40;99.90;;;;;;6245884;23;20012;-42
2023/08/27 03:10:24;;;;;;;6.72;6.13;;;13.30;99.90;;;;;;6246293;23;20091;-42
2023/08/27 03:12:50;;;;;;;7.60;6.45;;;13.30;99.90;;;;;;6246250;23;20019;-42
2023/08/27 03:15:16;;;;;;;6.78;6.10;;;13.30;99.90;;;;;;6246294;23;20036;-42
2023/08/27 03:17:42;;;;;;;7.80;5.80;;;13.40;99.90;;;;;;6246245;23;20019;-44
2023/08/27 03:20:08;;;;;;;6.85;6.25;;;13.40;99.90;;;;;;6246539;23;20020;-42
2023/08/27 03:22:34;;;;;;;6.97;6.38;;;13.40;99.90;;;;;;6219071;23;20456;-45
2023/08/27 03:25:03;;;;;;;7.45;6.70;;;13.60;99.90;;;;;;6246199;23;20047;-44
2023/08/27 03:27:29;;;;;;;6.82;6.22;;;13.50;99.90;;;;;;6245844;23;20138;-44
2023/08/27 03:29:55;;;;;;;6.88;6.18;;;13.50;99.90;;;;;;6246208;23;20059;-43
2023/08/27 03:32:20;;;;;;;7.20;5.85;;;13.60;99.90;;;;;;6246085;23;20013;-43
2023/08/27 03:34:46;;;;;;;6.60;5.93;;;13.60;99.90;;;;;;6246019;23;20429;-42
2023/08/27 03:37:12;;;;;;;6.90;5.45;;;13.60;99.90;;;;;;6246157;23;20082;-44
2023/08/27 03:39:37;;;;;;;5.72;5.30;;;13.60;99.90;;;;;;6246184;23;20009;-42
2023/08/27 03:42:03;;;;;;;5.70;5.20;;;13.70;99.90;;;;;;6245984;23;20151;-44
2023/08/27 03:44:29;;;;;;;6.20;5.72;;;13.90;99.90;;;;;;6219004;23;20020;-43
2023/08/27 03:46:54;;;;;;;6.53;5.93;;;13.60;99.90;;;;;;6246009;23;20015;-45
2023/08/27 03:49:20;;;;;;;5.30;4.90;;;13.90;99.90;;;;;;6246094;23;20381;-44
2023/08/27 03:51:46;;;;;;;5.65;5.15;;;13.90;99.90;;;;;;6245942;23;20016;-43
2023/08/27 03:54:11;;;;;;;5.93;5.32;;;13.80;99.90;;;;;;6245928;23;20407;-43
2023/08/27 03:56:37;;;;;;;5.93;5.30;;;13.70;99.90;;;;;;6246052;23;20058;-46
2023/08/27 03:59:03;;;;;;;6.72;5.47;;;13.90;99.90;;;;;;6245483;23;20020;-43
2023/08/27 04:01:29;;;;;;;5.90;5.32;;;14.00;99.90;;;;;;6245901;23;20024;-43
2023/08/27 04:03:55;;;;;;;6.47;5.88;;;14.00;99.90;;;;;;6245648;23;20083;-44
2023/08/27 04:06:21;;;;;;;8.50;6.03;;;13.90;99.90;;;;;;6220509;23;20460;-42
2023/08/27 04:08:48;;;;;;;6.05;5.45;;;13.90;99.90;;;;;;6247943;23;20048;-43
2023/08/27 04:11:15;;;;;;;6.55;6.05;;;13.90;99.90;;;;;;6248032;23;20013;-45
2023/08/27 04:13:41;;;;;;;7.60;6.18;;;13.80;99.90;;;;;;6248003;23;20062;-47
2023/08/27 04:16:08;;;;;;;8.02;6.13;;;13.90;99.90;;;;;;6247949;23;20371;-43
2023/08/27 04:18:34;;;;;;;5.97;5.43;;;13.90;99.90;;;;;;6247844;23;20054;-42
2023/08/27 04:21:01;;;;;;;6.07;5.47;;;13.80;99.90;;;;;;6247545;23;20448;-44
2023/08/27 04:23:27;;;;;;;5.28;4.88;;;13.90;99.90;;;;;;6220856;23;20043;-42
2023/08/27 04:25:54;;;;;;;5.80;5.18;;;13.80;99.90;;;;;;6247885;23;20012;-44
2023/08/27 04:28:20;;;;;;;6.95;5.68;;;13.70;99.90;;;;;;6247934;23;20016;-44
2023/08/27 04:30:49;;;;;;;6.00;5.50;;;13.70;99.90;;;;;;6247734;23;20019;-46
2023/08/27 04:33:16;;;;;;;6.25;5.70;;;13.70;99.90;;;;;;6221022;23;20023;-42
2023/08/27 04:35:44;;;;;;;6.32;5.72;;;13.60;99.90;;;;;;6247694;23;20023;-43
2023/08/27 04:38:10;;;;;;;6.57;5.90;;;13.70;99.90;;;;;;6220596;23;20028;-42
2023/08/27 04:40:36;;;;;;;7.07;6.38;;;13.50;99.90;;;;;;6247831;23;20016;-44
2023/08/27 04:43:02;;;;;;;6.47;5.97;;;13.50;99.90;;;;;;6221025;23;20470;-43
2023/08/27 04:45:28;;;;;;;7.03;6.32;;;13.50;99.90;;;;;;6220850;23;20008;-43
2023/08/27 04:47:54;;;;;;;6.43;5.80;;;13.60;99.90;;;;;;6247701;23;20022;-43
2023/08/27 04:50:20;;;;;;;6.93;6.35;;;13.60;99.90;;;;;;6247701;23;20396;-42
2023/08/27 04:52:45;;;;;;;6.72;6.13;;;13.50;99.90;;;;;;6247718;23;20074;-43
2023/08/27 04:55:11;;;;;;;6.47;5.97;;;13.60;99.90;;;;;;6247736;23;20459;-42
2023/08/27 04:57:37;;;;;;;6.93;6.07;;;13.60;99.90;;;;;;6247528;23;20013;-43
2023/08/27 05:00:07;;;;;;;7.03;6.43;;;13.60;99.90;;;;;;6247302;23;20008;-42
2023/08/27 05:02:36;;;;;;;10.10;6.47;;;13.80;99.90;;;;;;6247174;23;20012;-42
2023/08/27 05:05:02;;;;;;;7.07;6.47;;;;;;;;;;6246137;23;20016;-42
2023/08/27 05:07:28;;;;;;;6.68;6.07;;;13.80;99.90;;;;;;6245735;23;20048;-45
2023/08/27 05:09:54;;;;;;;7.78;7.00;;;13.80;99.90;;;;;;6245683;23;20015;-42
2023/08/27 05:12:20;;;;;;;8.30;7.43;;;13.90;99.90;;;;;;6245624;23;20015;-42
2023/08/27 05:14:45;;;;;;;7.28;6.68;;;14.10;99.90;;;;;;6218521;23;20444;-44
2023/08/27 05:17:11;;;;;;;8.10;7.30;;;13.90;99.90;;;;;;6218371;23;20013;-45
2023/08/27 05:19:37;;;;;;;8.70;7.90;;;14.00;99.90;;;;;;6245428;23;20028;-44
2023/08/27 05:22:03;;;;;;;8.55;7.00;;;13.90;99.90;;;;;;6245709;23;20379;-46
2023/08/27 05:24:29;;;;;;;8.50;7.60;;;14.20;99.90;;;;;;6245589;23;20020;-42
2023/08/27 05:26:55;;;;;;;8.07;7.45;;;14.10;99.90;;;;;;6245535;23;20014;-43
2023/08/27 05:29:20;;;;;;;7.90;7.15;;;14.10;99.90;;;;;;6245617;23;20016;-42
2023/08/27 05:31:46;;;;;;;7.70;6.88;;;14.20;99.90;;;;;;6245660;23;20008;-42
2023/08/27 05:34:12;;;;;;;8.52;7.60;;;14.20;99.90;;;;;;6218371;23;20391;-42
2023/08/27 05:36:38;;;;;;;7.82;6.97;;;14.30;99.90;;;;;;6245631;23;20013;-43
2023/08/27 05:39:05;;;;;;;8.45;7.65;;;14.30;99.90;;;;;;6245308;23;20061;-43
2023/08/27 05:41:31;;;;;;;9.50;7.88;;;14.30;99.90;;;;;;6245312;23;20440;-43
2023/08/27 05:43:56;;;;;;;8.15;7.25;;;14.30;99.90;;;;;;6245759;23;20061;-44
2023/08/27 05:46:22;;;;;;;8.38;6.70;;;14.40;99.90;;;;;;6245505;23;20031;-42
2023/08/27 05:48:48;;;;;;;7.95;7.22;;;14.40;99.90;;;;;;6245503;23;20083;-42
2023/08/27 05:51:14;;;;;;;10.32;7.15;;;14.30;99.90;;;;;;6193302;23;20452;-43
2023/08/27 05:53:40;;;;;;;10.40;6.95;;;14.40;99.90;;;;;;6245324;23;20016;-41
2023/08/27 05:56:05;;;;;;;14.57;6.60;;;14.30;99.90;;;;;;6245461;23;20012;-42
2023/08/27 05:58:31;;;;;;;7.55;5.18;;;14.30;99.90;;;;;;6245245;23;20069;-43
2023/08/27 06:00:57;;;;;;;6.40;5.75;;;14.20;99.90;;;;;;6193266;23;20044;-43
2023/08/27 06:03:23;;;;;;;9.83;6.43;;;14.20;99.90;;;;;;6197717;23;1104839;-42
2023/08/27 06:05:49;;;;;;;9.18;6.05;;;14.30;99.90;;;;;;6246929;23;20444;-42
2023/08/27 06:08:15;;;;;;;7.95;6.72;;;14.20;99.90;;;;;;6220236;23;20012;-43
2023/08/27 06:10:40;;;;;;;5.75;5.18;;;14.20;99.90;;;;;;6246834;22;20008;-44
2023/08/27 06:13:07;;;;;;;8.15;6.38;;;14.20;99.90;;;;;;6246834;23;20046;-42
2023/08/27 06:15:34;;;;;;;7.43;5.82;;;14.20;99.90;;;;;;6245140;23;20027;-41
2023/08/27 06:18:03;;;;;;;6.80;5.53;;;14.30;99.90;;;;;;6246803;23;20340;-44
2023/08/27 06:20:29;;;;;;;6.50;5.80;;;14.20;99.90;;;;;;6245048;23;20015;-42
2023/08/27 06:22:55;;;;;;;6.18;5.57;;;14.20;99.90;;;;;;6245400;23;20020;-43
2023/08/27 06:25:24;;;;;;;6.47;5.70;;;14.20;99.90;;;;;;6246615;23;20078;-42
2023/08/27 06:27:53;;;;;;;8.27;5.93;;;14.20;99.90;;;;;;6244978;23;20020;-46
2023/08/27 06:30:19;;;;;;;7.40;5.78;;;14.20;99.90;;;;;;6246754;22;20020;-42
2023/08/27 06:32:44;;;;;;;7.15;5.80;;;14.20;99.90;;;;;;6246873;23;20008;-42
2023/08/27 06:35:10;;;;;;;6.30;5.70;;;14.20;99.90;;;;;;6219424;23;20440;-44
2023/08/27 06:37:36;;;;;;;7.10;5.55;;;14.20;99.90;;;;;;6246510;23;20063;-43
2023/08/27 06:40:01;;;;;;;8.05;5.40;;;14.20;99.90;;;;;;6246526;23;20016;-42
2023/08/27 06:42:27;;;;;;;8.25;5.18;;;14.10;99.90;;;;;;6246828;23;20016;-42
2023/08/27 06:44:53;;;;;;;6.07;5.22;;;14.10;99.90;;;;;;6219527;23;20016;-42
2023/08/27 06:47:18;;;;;;;5.82;5.22;;;14.10;99.90;;;;;;6219434;23;20017;-46
2023/08/27 06:49:44;;;;;;;6.53;5.10;;;14.10;99.90;;;;;;6246163;23;20083;-43
2023/08/27 06:52:10;;;;;;;5.80;5.25;;;14.20;99.90;;;;;;6246473;23;20019;-44
2023/08/27 06:54:36;;;;;;;6.43;5.10;;;14.10;99.90;;;;;;6245837;23;20019;-42
2023/08/27 06:57:02;;;;;;;5.72;4.93;;;14.10;99.90;;;;;;6246341;23;20061;-42
2023/08/27 06:59:27;;;;;;;6.90;5.72;;;14.10;99.90;;;;;;6246386;23;20035;-43
2023/08/27 07:01:53;;;;;;;7.15;5.53;;;14.10;99.90;;;;;;6246469;23;20067;-43
2023/08/27 07:04:18;;;;;;;5.63;5.07;;;14.20;99.90;;;;;;6246004;22;20463;-43
2023/08/27 07:06:44;;;;;;;6.72;5.28;;;14.10;99.90;;;;;;6246000;23;20031;-43
2023/08/27 07:09:10;;;;;;;5.88;5.00;;;14.10;99.90;;;;;;6246125;23;20012;-45
2023/08/27 07:11:35;;;;;;;5.57;5.07;;;14.20;99.90;;;;;;6245991;23;20019;-42
2023/08/27 07:14:02;;;;;;;8.25;5.25;;;14.20;99.90;;;;;;6246214;23;20035;-43
2023/08/27 07:16:27;;;;;;;6.05;4.93;;;14.30;99.90;;;;;;6245874;23;20401;-43
2023/08/27 07:18:53;;;;;;;6.90;5.00;;;14.20;99.90;;;;;;6246052;23;20024;-43
2023/08/27 07:21:19;;;;;;;5.25;4.75;;;;;;;;;;6246433;23;20019;-43
2023/08/27 07:23:45;;;;;;;5.40;4.70;;;14.60;99.90;;;;;;6219170;23;20095;-45
2023/08/27 07:26:11;;;;;;;5.30;4.43;;;14.90;99.90;;;;;;6246278;23;20109;-43
2023/08/27 07:28:37;;;;;;;9.15;4.50;;;15.30;99.90;;;;;;6246137;23;20090;-43
2023/08/27 07:31:04;;;;;;;4.18;3.88;;;15.80;99.90;;;;;;6219112;23;20446;-42
2023/08/27 07:33:30;;;;;;;4.28;3.47;;;16.20;99.90;;;;;;6246162;22;20008;-45
2023/08/27 07:35:55;;;;;;;3.80;3.50;;;16.30;99.90;;;;;;6246233;22;20008;-44
2023/08/27 07:38:22;;;;;;;4.30;3.22;;;16.40;99.90;;;;;;6246068;22;20324;-43
2023/08/27 07:40:48;;;;;;;4.60;2.67;;;16.40;99.90;;;;;;6244065;23;20027;-42
2023/08/27 07:43:13;;;;;;;4.22;2.60;;;16.60;99.90;;;;;;6246152;23;20012;-42
2023/08/27 07:45:39;;;;;;;2.88;2.67;;;16.90;99.90;;;;;;6246119;23;20008;-44
2023/08/27 07:48:05;;;;;;;3.40;2.30;;;17.10;99.90;;;;;;6246453;23;20059;-47
2023/08/27 07:50:30;;;;;;;3.17;2.88;;;17.20;99.90;;;;;;6246159;23;20008;-44
2023/08/27 07:52:56;;;;;;;3.80;2.35;;;17.30;99.90;;;;;;6245937;23;20506;-44
2023/08/27 07:55:22;;;;;;;4.65;2.47;;;17.30;99.90;;;;;;6193777;23;20012;-45
2023/08/27 07:57:47;;;;;;;3.08;2.45;;;17.30;99.90;;;;;;6246065;23;20008;-46
2023/08/27 08:00:13;;;;;;;2.80;2.30;;;17.30;99.90;;;;;;6245513;23;20012;-43
2023/08/27 08:02:40;;;;;;;2.30;2.10;;;17.20;99.90;;;;;;6245746;23;20016;-43
2023/08/27 08:05:06;;;;;;;2.50;2.30;;;17.30;99.90;;;;;;6246138;23;20017;-43
2023/08/27 08:07:35;;;;;;;3.03;2.55;;;17.40;99.90;;;;;;6218845;23;20031;-43
2023/08/27 08:10:01;;;;;;;3.15;2.20;;;17.30;99.90;;;;;;6245610;23;20016;-43
2023/08/27 08:12:27;;;;;;;4.72;2.70;;;17.30;99.90;;;;;;6245963;23;20008;-42
2023/08/27 08:14:52;;;;;;;2.83;2.17;;;17.30;99.90;;;;;;6245961;23;20043;-42
2023/08/27 08:17:18;;;;;;;3.28;2.63;;;17.10;99.90;;;;;;6246034;23;20460;-44
2023/08/27 08:19:44;;;;;;;2.88;2.20;;;17.10;99.90;;;;;;6245968;23;20008;-44
2023/08/27 08:22:10;;;;;;;2.60;2.40;;;17.20;99.90;;;;;;6245916;23;20012;-45
2023/08/27 08:24:36;;;;;;;2.75;2.35;;;17.30;99.90;;;;;;6245688;23;20016;-43
2023/08/27 08:27:06;;;;;;;1.92;1.73;;;17.30;99.90;;;;;;6246070;23;20452;-44
2023/08/27 08:29:32;;;;;;;2.13;1.90;;;17.50;99.90;;;;;;6245858;23;20016;-42
2023/08/27 08:31:59;;;;;;;2.25;1.95;;;17.60;99.90;;;;;;6245903;23;20016;-42
2023/08/27 08:34:27;;;;;;;2.22;2.05;;;17.80;99.90;;;;;;6245731;23;20008;-44
2023/08/27 08:36:53;;;;;;;2.85;2.10;;;18.10;99.90;;;;;;6245516;23;20060;-42
2023/08/27 08:39:19;;;;;;;2.80;1.70;;;18.30;99.90;;;;;;6245909;23;20019;-42
2023/08/27 08:42:02;;;;;;;2.80;1.70;;;18.20;99.90;;;;;;6246010;23;20086;-48
2023/08/27 08:45:05;;;;;;;2.75;1.65;;;18.30;99.90;;;;;;6246095;23;20055;-44
2023/08/27 08:47:34;;;;;;;2.67;1.70;;;18.40;99.90;;;;;;6245782;23;20020;-45
2023/08/27 08:50:06;;;;;;;3.70;1.85;;;18.50;99.90;;;;;;6245850;23;20083;-43
2023/08/27 08:52:36;;;;;;;3.17;2.10;;;18.70;99.90;;;;;;6220279;23;20345;-42
2023/08/27 08:55:06;;;;;;;2.30;2.10;;;18.60;99.90;;;;;;6247612;23;20394;-43
2023/08/27 08:57:34;;;;;;;2.78;2.10;;;18.90;99.90;;;;;;6247470;23;20372;-45
2023/08/27 09:00:00;;;;;;;3.45;2.00;;;18.90;99.90;;;;;;6220329;23;20075;-43
2023/08/27 09:02:25;;;;;;;3.90;2.03;;;19.00;99.90;;;;;;6247241;23;20008;-43
2023/08/27 09:04:52;;;;;;;3.40;2.17;;;19.00;99.90;;;;;;6247082;23;20023;-47
2023/08/27 09:07:18;;;;;;;3.67;2.45;;;19.00;99.90;;;;;;6247067;23;20437;-44
2023/08/27 09:09:45;;;;;;;4.83;2.43;;;19.30;99.90;;;;;;6220545;23;20016;-43
2023/08/27 09:12:12;;;;;;;5.17;2.93;;;19.40;99.90;;;;;;6247066;23;20020;-43
2023/08/27 09:14:38;;;;;;;4.75;3.08;;;19.20;99.90;;;;;;6247372;23;20255;-47
2023/08/27 09:17:05;;;;;;;4.75;3.15;;;19.20;99.90;;;;;;6247461;23;20357;-45
2023/08/27 09:19:30;;;;;;;4.13;3.10;;;19.30;99.90;;;;;;6247184;23;20055;-43
2023/08/27 09:21:56;;;;;;;5.05;3.30;;;19.50;99.90;;;;;;6247307;23;20067;-46
2023/08/27 09:24:22;;;;;;;3.85;3.50;;;19.50;99.90;;;;;;6194952;23;20070;-46
2023/08/27 09:26:48;;;;;;;4.18;3.30;;;19.50;99.90;;;;;;6220001;23;20368;-44
2023/08/27 09:29:17;;;;;;;4.55;3.25;;;19.50;99.90;;;;;;6247352;23;20434;-45
2023/08/27 09:31:44;;;;;;;4.50;2.90;;;19.80;99.90;;;;;;6247228;23;20070;-43
2023/08/27 09:34:13;;;;;;;5.03;3.20;;;19.90;99.90;;;;;;6247169;23;20012;-45
2023/08/27 09:36:39;;;;;;;4.20;2.83;;;19.70;99.90;;;;;;6247190;23;20012;-44
2023/08/27 09:39:12;;;;;;;5.43;3.50;;;20.00;99.90;;;;;;6247212;23;20512;-44
2023/08/27 09:41:42;;;;;;;4.93;2.92;;;19.80;99.90;;;;;;6246745;23;20348;-45
2023/08/27 09:44:08;;;;;;;3.92;2.35;;;19.60;99.90;;;;;;6247323;23;20019;-47
2023/08/27 09:46:36;;;;;;;5.20;2.70;;;19.80;99.90;;;;;;6220063;23;20074;-44
2023/08/27 09:49:04;;;;;;;4.32;2.50;;;19.60;99.90;;;;;;6246870;23;20023;-44
2023/08/27 09:51:36;;;;;;;3.13;2.83;;;19.60;99.90;;;;;;6219902;23;20471;-44
2023/08/27 09:54:17;;;;;;;4.43;2.58;;;20.00;99.90;;;;;;6246918;23;20016;-45
2023/08/27 09:56:45;;;;;;;3.28;2.42;;;20.00;99.90;;;;;;6247105;23;20027;-45
2023/08/27 09:59:14;;;;;;;2.75;2.20;;;20.20;99.90;;;;;;6246876;23;20020;-44
2023/08/27 10:01:40;;;;;;;3.92;2.22;;;20.40;99.90;;;;;;6246880;23;20016;-44
2023/08/27 10:04:09;;;;;;;3.22;2.00;;;20.40;99.90;;;;;;6246066;23;20375;-43
2023/08/27 10:06:37;;;;;;;4.68;2.50;;;20.90;99.90;;;;;;6246612;23;20020;-45
2023/08/27 10:09:04;;;;;;;4.28;2.38;;;20.90;99.90;;;;;;6247075;23;20012;-44
2023/08/27 10:11:31;;;;;;;6.82;2.80;;;20.80;99.90;;;;;;6246927;23;20016;-45
2023/08/27 10:13:58;;;;;;;4.25;2.38;;;20.60;99.90;;;;;;6246690;23;20073;-44
2023/08/27 10:16:24;;;;;;;2.83;2.07;;;20.60;99.90;;;;;;6246865;23;20369;-44
2023/08/27 10:18:50;;;;;;;3.78;2.30;;;20.90;99.90;;;;;;6246686;23;20016;-44
2023/08/27 10:21:16;;;;;;;2.75;2.03;;;20.70;99.90;;;;;;6246746;23;20043;-45
2023/08/27 10:23:42;;;;;;;3.10;2.00;;;20.70;99.90;;;;;;6246583;23;20016;-45
2023/08/27 10:26:08;;;;;;;3.70;2.15;;;20.70;99.90;;;;;;6246566;23;20009;-46
2023/08/27 10:28:35;;;;;;;4.07;2.00;;;20.40;99.90;;;;;;6246555;23;20016;-46
2023/08/27 10:31:03;;;;;;;5.63;2.38;;;20.80;99.90;;;;;;6246695;23;20016;-44
2023/08/27 10:33:29;;;;;;;3.75;1.90;;;21.00;99.90;;;;;;6246565;23;20337;-43
2023/08/27 10:35:59;;;;;;;4.90;2.00;;;21.10;99.90;;;;;;6246659;23;20020;-45
2023/08/27 10:38:27;;;;;;;3.58;2.05;;;21.00;99.90;;;;;;6246166;23;20467;-45
2023/08/27 10:40:53;;;;;;;3.25;1.90;;;20.80;99.90;;;;;;6246614;23;20012;-44
2023/08/27 10:43:20;;;;;;;2.78;1.88;;;20.70;99.90;;;;;;6246567;23;20015;-45
2023/08/27 10:45:49;;;;;;;4.45;2.30;;;21.00;99.90;;;;;;6219329;23;20012;-44
2023/08/27 10:48:18;;;;;;;3.10;2.28;;;21.10;99.90;;;;;;6246506;23;20008;-43
2023/08/27 10:50:48;;;;;;;3.58;1.95;;;21.30;99.90;;;;;;6246598;23;20019;-45
2023/08/27 10:53:17;;;;;;;3.65;2.08;;;21.20;99.90;;;;;;6246661;23;20017;-45
2023/08/27 10:55:51;;;;;;;3.58;2.10;;;21.50;99.90;;;;;;6246374;23;20016;-45
2023/08/27 10:58:25;;;;;;;3.92;2.30;;;21.50;99.90;;;;;;6219424;23;20019;-45
2023/08/27 11:01:03;;;;;;;3.95;2.15;;;21.80;99.90;;;;;;6246436;23;20020;-44
2023/08/27 11:04:01;;;;;;;3.03;2.03;;;21.90;99.90;;;;;;6245762;23;20475;-44
2023/08/27 11:06:45;;;;;;;2.13;1.90;;;21.70;99.90;;;;;;6246026;23;20475;-44
2023/08/27 11:09:14;;;;;;;5.22;2.30;;;21.70;99.90;;;;;;6245962;23;20495;-44
2023/08/27 11:11:43;;;;;;;3.47;2.20;;;21.50;99.90;;;;;;6246396;23;20015;-47
2023/08/27 11:14:09;;;;;;;3.53;2.30;;;21.40;99.90;;;;;;6245840;23;20012;-45
2023/08/27 11:16:48;;;;;;;2.63;2.30;;;21.30;99.90;;;;;;6246097;23;20019;-44
2023/08/27 11:19:24;;;;;;;3.72;2.00;;;21.70;99.90;;;;;;6246080;23;20024;-45
2023/08/27 11:21:49;;;;;;;3.83;1.77;;;21.90;99.90;;;;;;6245838;23;20483;-48
2023/08/27 11:24:16;;;;;;;4.40;1.65;;;22.00;99.90;;;;;;6246102;23;20020;-45
2023/08/27 11:26:43;;;;;;;3.80;2.10;;;21.50;99.90;;;;;;6246254;23;20079;-43
2023/08/27 11:29:10;;;;;;;4.30;2.00;;;21.60;99.90;;;;;;6194010;23;20091;-47
2023/08/27 11:31:39;;;;;;;2.33;1.70;;;21.70;99.90;;;;;;6246140;23;20019;-46
2023/08/27 11:34:06;;;;;;;4.50;1.77;;;21.50;99.90;;;;;;6246168;23;20008;-43
2023/08/27 11:36:32;;;;;;;5.53;2.00;;;21.40;99.90;;;;;;6245858;22;20429;-42
2023/08/27 11:38:58;;;;;;;4.45;1.40;;;21.30;99.90;;;;;;6245937;23;20012;-43
2023/08/27 11:41:24;;;;;;;2.65;1.30;;;;;;;;;;6246241;23;20023;-44
2023/08/27 11:43:56;;;;;;;3.22;1.52;;;21.30;99.90;;;;;;6246211;23;20345;-43
2023/08/27 11:46:22;;;;;;;3.17;1.80;;;21.10;99.90;;;;;;6245992;23;20012;-44
2023/08/27 11:48:48;;;;;;;1.90;1.17;;;20.80;99.90;;;;;;6245779;23;20013;-44
2023/08/27 11:51:15;;;;;;;2.22;1.33;;;20.70;99.90;;;;;;6246074;23;20023;-43
2023/08/27 11:53:42;;;;;;;2.33;1.30;;;20.50;99.90;;;;;;6244105;23;20012;-43
2023/08/27 11:56:08;;;;;;;3.38;1.35;;;20.30;99.90;;;;;;6246335;22;20012;-45
2023/08/27 11:58:34;;;;;;;2.75;1.25;;;20.10;99.90;;;;;;6246100;22;20027;-46
2023/08/27 12:01:00;;;;;;;3.80;1.40;;;19.80;99.90;;;;;;6246030;23;20016;-44
2023/08/27 12:03:26;;;;;;;3.83;1.35;;;19.80;99.90;;;;;;6245789;23;20019;-45
2023/08/27 12:05:52;;;;;;;3.47;1.50;;;;;;;;;;6246074;23;20012;-44
2023/08/27 12:08:17;;;;;;;3.28;1.60;;;19.30;99.90;;;;;;6246015;23;20023;-45
2023/08/27 12:10:44;;;;;;;1.85;1.23;;;18.90;99.90;;;;;;6246043;23;20016;-43
2023/08/27 12:13:10;;;;;;;2.27;1.20;;;18.90;99.90;;;;;;6245943;22;20009;-44
2023/08/27 12:15:36;;;;;;;3.72;1.45;;;18.50;99.90;;;;;;6245954;23;20340;-43
2023/08/27 12:18:07;;;;;;;2.58;1.60;;;18.40;99.90;;;;;;6245970;23;20087;-45
2023/08/27 12:20:32;;;;;;;3.55;2.00;;;18.50;99.90;;;;;;6246117;22;20095;-45
2023/08/27 12:23:10;;;;;;;3.47;1.92;;;18.50;99.90;;;;;;6245626;22;20066;-43
2023/08/27 12:25:49;;;;;;;3.55;2.40;;;18.60;99.90;;;;;;6244958;23;20468;-42
2023/08/27 12:28:16;;;;;;;3.88;2.30;;;18.60;99.90;;;;;;6246286;23;20026;-44
2023/08/27 12:30:52;;;;;;;3.28;2.08;;;18.60;99.90;;;;;;6220944;23;20462;-45
2023/08/27 12:33:18;;;;;;;2.30;1.83;;;18.60;99.90;;;;;;6247904;23;20012;-45
2023/08/27 12:35:47;;;;;;;2.22;1.48;;;18.60;99.90;;;;;;6248059;23;20019;-44
2023/08/27 12:38:13;;;;;;;1.70;1.40;;;18.70;99.90;;;;;;6247742;22;20016;-43
2023/08/27 12:40:39;;;;;;;2.80;1.65;;;18.80;99.90;;;;;;6247873;23;20067;-43
2023/08/27 12:43:05;;;;;;;2.40;1.58;;;19.00;99.90;;;;;;6245891;23;20012;-43
2023/08/27 12:45:31;;;;;;;2.90;1.30;;;19.20;99.90;;;;;;6246160;23;20024;-44
2023/08/27 12:47:56;;;;;;;2.40;1.10;;;19.50;99.90;;;;;;6247504;23;20012;-42
2023/08/27 12:50:22;;;;;;;1.83;1.38;;;19.90;99.90;;;;;;6246586;23;20024;-44
2023/08/27 12:52:48;;;;;;;1.80;1.27;;;19.90;99.90;;;;;;6246753;23;20083;-44
2023/08/27 12:55:14;;;;;;;2.65;1.40;;;20.00;99.90;;;;;;6246636;23;20016;-43
2023/08/27 12:57:40;;;;;;;1.45;1.10;;;20.00;99.90;;;;;;6244817;23;20012;-44
2023/08/27 13:00:10;;;;;;;1.17;1.08;;;19.90;99.90;;;;;;6247323;23;20020;-44